Aeroporto :
LOGIN :

Iscrizione | Disclaimer

   EN    FR    IT 

 










Sommario :    VFR   VFR Marginale   IFR   IFR Intensivo   IFR Molto Intensivo
Visibilità : 
Base nubi : 
>= 8 km
>= 3000ft
5 / 8 km
1000 / 3000 ft
1500m / 5 km
500 / 1000 ft
800 / 1500m
200 / 500 ft
< 800m
< 200 ft
Simboli :   Temporali  Nebbia  Neve Forte  Precipitazioni Forti  Vento > 20 kt
SIGMETs :   Varie  Temporali  Ghiacco  Turbolenza  Onda orograficha  Ceneri Vulcaniche






- Altitudine del aeroporto : 17 ft
- Codice IATA : DND


EGPN - Dundee

ULTIMO METAR :
  • 081050Z 25018KT 9999 FEW040 14/08 Q1022

METARs OBSOLETI :
  • 081020Z 25019KT 9999 FEW040 13/08 Q1022
  • 080950Z 25015KT 9999 FEW040 13/09 Q1022
  • 080920Z 25016KT 9999 FEW040 12/08 Q1022
  • 080850Z 25010KT 9999 FEW040 11/08 Q1022

TAF TAF EGPN
Valido dal 08 a 12 ore il 08 a 19 ore UTC


081058Z 0812/0819 25015KT 9999 FEW040



MetMap, La meteo Aeronautica in un colpo d'occhio ! - Copyright ORBIFLY Dicembre 2007 - Disclaimer

ORBIFLY MET'MAP TEAM :

Programmazione e sviluppo : Alexandra Zaïnal
Concezione : Baudouin d'Aumeries
Aiuto per la programmazione : Marc-Olivier Méhu
Supporto tecnico e logistico : Manuel Goepfert
Aiuto per la traduzione : Arnaldo La Scala

Contatto : metmap@orbifly.com




FONTI E CREDITI :

   NOAA